Spring Green, Wisconsin
Current Conditions -  °F | °C
As of 9:56 AM on Friday 28 Nov 2014 (Local Time) from KLNR Reporting Station
Clear Clear  
Wind Chill: 13°   Ceiling: Unl
Heat Index: 22°   Visibility: 10mi
Dew Point: 10°   Wind: 8mph
Humidity: 60%   Direction: 130°SE
Pressure: 30.1"   Gusts: NA
Location:  43.18°N, 90.07°W
Report Text: KLNR 281556Z AUTO 13007KT 10SM CLR M06/M12 A3010 RMK AO2 SLP199 T10561122
Loading
Personal Weather Stations






























Interactive Weather Map New forecast layout! Learn more

10-Day Weather Forecast

Advertisements
Track Severe Weather on mobile